createdAt,value
2023-04-10T00:02:08.878Z,78.22
2023-04-10T00:04:35.661Z,78.01
2023-04-10T00:07:02.318Z,77.94
2023-04-10T00:09:29.688Z,78.26
2023-04-10T00:11:57.787Z,78.26
2023-04-10T00:14:24.530Z,77.55
2023-04-10T00:16:51.477Z,77.81
2023-04-10T00:19:18.450Z,77.94
2023-04-10T00:21:45.055Z,77.27
2023-04-10T00:24:11.612Z,77.60
2023-04-10T00:26:38.167Z,77.01
2023-04-10T00:29:04.792Z,77.19
2023-04-10T00:31:32.068Z,76.92
2023-04-10T00:33:58.724Z,76.97
2023-04-10T00:36:26.907Z,76.77
2023-04-10T00:38:53.579Z,77.11
2023-04-10T00:41:20.167Z,76.75
2023-04-10T00:43:46.760Z,76.53
2023-04-10T00:46:13.538Z,76.67
2023-04-10T00:48:40.842Z,76.78
2023-04-10T00:51:07.644Z,77.03
2023-04-10T00:53:34.272Z,76.84
2023-04-10T00:56:02.058Z,76.62
2023-04-10T00:58:28.670Z,76.77
2023-04-10T01:00:56.344Z,75.91
2023-04-10T01:03:24.466Z,75.95
2023-04-10T01:06:16.385Z,75.87
2023-04-10T01:08:48.998Z,75.96
2023-04-10T01:11:27.563Z,76.33
2023-04-10T01:14:05.395Z,76.98
2023-04-10T01:16:40.447Z,76.46
2023-04-10T01:19:26.187Z,76.39
2023-04-10T01:21:56.048Z,76.55
2023-04-10T01:24:48.755Z,76.18
2023-04-10T01:27:15.445Z,76.15
2023-04-10T01:29:47.774Z,76.32
2023-04-10T01:32:20.601Z,76.82
2023-04-10T01:34:51.617Z,76.07
2023-04-10T01:37:28.003Z,76.45
2023-04-10T01:40:00.456Z,76.30
2023-04-10T01:42:31.226Z,75.89
2023-04-10T01:44:59.371Z,75.86
2023-04-10T01:47:28.051Z,76.16
2023-04-10T01:49:56.453Z,76.08
2023-04-10T01:52:24.458Z,75.72
2023-04-10T01:54:52.161Z,75.59
2023-04-10T01:57:19.260Z,76.09
2023-04-10T01:59:47.112Z,75.29
2023-04-10T02:02:13.814Z,75.76
2023-04-10T02:04:40.663Z,75.39
2023-04-10T02:07:31.871Z,75.51
2023-04-10T02:10:10.908Z,75.70
2023-04-10T02:12:56.176Z,75.48
2023-04-10T02:15:24.783Z,75.68
2023-04-10T02:17:52.754Z,75.85
2023-04-10T02:20:19.912Z,75.70
2023-04-10T02:22:48.226Z,75.37
2023-04-10T02:25:14.976Z,75.33
2023-04-10T02:27:42.190Z,75.02
2023-04-10T02:30:09.449Z,75.42
2023-04-10T02:32:36.870Z,75.35
2023-04-10T02:35:04.136Z,75.34
2023-04-10T02:37:32.101Z,75.51
2023-04-10T02:39:58.679Z,75.57
2023-04-10T02:42:25.264Z,76.01
2023-04-10T02:44:51.753Z,75.98
2023-04-10T02:47:18.864Z,76.19
2023-04-10T02:49:45.687Z,76.00
2023-04-10T02:52:12.417Z,76.06
2023-04-10T02:54:39.593Z,75.78
2023-04-10T02:57:06.691Z,76.19
2023-04-10T02:59:33.260Z,75.75
2023-04-10T03:01:59.917Z,75.75
2023-04-10T03:04:26.637Z,75.45
2023-04-10T03:06:53.140Z,75.76
2023-04-10T03:09:19.660Z,75.66
2023-04-10T03:11:46.135Z,75.87
2023-04-10T03:14:12.748Z,75.62
2023-04-10T03:16:39.489Z,75.82
2023-04-10T03:19:06.295Z,75.74
2023-04-10T03:21:33.217Z,76.10
2023-04-10T03:23:59.922Z,76.71
2023-04-10T03:26:27.832Z,76.51
2023-04-10T03:28:54.399Z,76.49
2023-04-10T03:31:21.251Z,76.88
2023-04-10T03:33:47.959Z,76.92
2023-04-10T03:36:14.923Z,76.77
2023-04-10T03:38:41.557Z,76.71
2023-04-10T03:41:08.211Z,76.78
2023-04-10T03:43:35.054Z,76.50
2023-04-10T03:46:01.866Z,76.75
2023-04-10T03:48:30.545Z,76.99
2023-04-10T03:50:57.249Z,76.69
2023-04-10T03:53:24.611Z,77.13
2023-04-10T03:55:52.577Z,77.00
2023-04-10T03:58:19.422Z,77.29
2023-04-10T04:00:46.615Z,77.20
2023-04-10T04:03:13.751Z,76.60
2023-04-10T04:05:40.596Z,76.85
2023-04-10T04:08:07.353Z,77.04
2023-04-10T04:10:33.961Z,76.62
2023-04-10T04:13:00.688Z,77.23
2023-04-10T04:15:27.653Z,77.76
2023-04-10T04:17:54.199Z,77.54
2023-04-10T04:20:21.001Z,77.68
2023-04-10T04:22:47.517Z,77.47
2023-04-10T04:25:14.082Z,78.36
2023-04-10T04:27:40.809Z,77.53
2023-04-10T04:30:07.974Z,77.96
2023-04-10T04:32:34.611Z,77.57
2023-04-10T04:35:01.274Z,76.93
2023-04-10T04:37:27.841Z,77.04
2023-04-10T04:39:54.417Z,76.88
2023-04-10T04:42:22.339Z,77.10
2023-04-10T04:44:49.639Z,77.29
2023-04-10T04:47:16.979Z,77.12
2023-04-10T04:49:43.615Z,77.04
2023-04-10T04:52:10.890Z,77.37
2023-04-10T04:54:37.453Z,77.13
2023-04-10T04:57:04.166Z,76.88
2023-04-10T04:59:30.738Z,77.51
2023-04-10T05:01:58.314Z,76.90
2023-04-10T05:04:25.137Z,76.93
2023-04-10T05:06:51.704Z,77.23
2023-04-10T05:09:18.282Z,76.94
2023-04-10T05:11:45.999Z,77.53
2023-04-10T05:14:12.575Z,76.92
2023-04-10T05:16:39.218Z,77.11
2023-04-10T05:19:05.796Z,77.31
2023-04-10T05:21:32.975Z,77.02
2023-04-10T05:23:59.491Z,76.67
2023-04-10T05:26:26.040Z,76.92
2023-04-10T05:28:53.029Z,76.92
2023-04-10T05:31:19.981Z,76.42
2023-04-10T05:33:46.598Z,76.94
2023-04-10T05:36:13.324Z,77.09
2023-04-10T05:38:41.080Z,76.61
2023-04-10T05:41:07.903Z,76.76
2023-04-10T05:43:34.459Z,76.36
2023-04-10T05:46:01.130Z,76.63
2023-04-10T05:48:28.876Z,76.45
2023-04-10T05:50:55.484Z,76.46
2023-04-10T05:53:23.112Z,76.33
2023-04-10T05:55:51.456Z,76.34
2023-04-10T05:58:18.004Z,76.19
2023-04-10T06:00:46.663Z,76.11
2023-04-10T06:03:13.359Z,76.76
2023-04-10T06:05:41.502Z,76.11
2023-04-10T06:08:07.992Z,75.93
2023-04-10T06:10:34.597Z,76.35
2023-04-10T06:13:01.321Z,76.36
2023-04-10T06:15:28.563Z,75.97
2023-04-10T06:17:55.649Z,76.33
2023-04-10T06:20:22.268Z,75.56
2023-04-10T06:22:48.805Z,75.65
2023-04-10T06:25:15.574Z,75.89
2023-04-10T06:27:42.109Z,74.66
2023-04-10T06:30:09.386Z,74.76
2023-04-10T06:32:36.214Z,74.42
2023-04-10T06:35:02.887Z,74.96
2023-04-10T06:37:31.626Z,75.25
2023-04-10T06:40:06.466Z,75.11
2023-04-10T06:42:33.270Z,75.11
2023-04-10T06:45:00.216Z,74.78
2023-04-10T06:47:27.888Z,74.32
2023-04-10T06:49:54.503Z,73.64
2023-04-10T06:52:21.217Z,73.82
2023-04-10T06:54:47.824Z,73.95
2023-04-10T06:57:14.499Z,73.62
2023-04-10T06:59:41.074Z,72.94
2023-04-10T07:02:08.000Z,72.54
2023-04-10T07:04:34.646Z,72.21
2023-04-10T07:07:01.446Z,71.35
2023-04-10T07:09:29.120Z,70.86
2023-04-10T07:11:55.683Z,70.42
2023-04-10T07:14:22.436Z,70.30
2023-04-10T07:16:49.614Z,69.39
2023-04-10T07:19:16.267Z,69.23
2023-04-10T07:21:42.935Z,67.93
2023-04-10T07:24:09.537Z,68.19
2023-04-10T07:26:36.152Z,68.73
2023-04-10T07:29:05.160Z,67.48
2023-04-10T07:31:31.911Z,68.12
2023-04-10T07:33:58.587Z,66.92
2023-04-10T07:36:26.680Z,66.28
2023-04-10T07:38:53.653Z,65.56
2023-04-10T07:41:20.608Z,64.65
2023-04-10T07:43:47.854Z,64.10
2023-04-10T07:46:15.484Z,64.59
2023-04-10T07:48:42.221Z,63.22
2023-04-10T07:51:09.928Z,63.19
2023-04-10T07:53:37.175Z,63.18
2023-04-10T07:56:03.915Z,62.55
2023-04-10T07:58:31.942Z,60.91
2023-04-10T08:00:58.787Z,60.37
2023-04-10T08:03:28.749Z,60.74
2023-04-10T08:05:55.485Z,61.22
2023-04-10T08:08:22.208Z,60.04
2023-04-10T08:10:49.180Z,60.66
2023-04-10T08:13:15.719Z,61.05
2023-04-10T08:15:42.464Z,60.46
2023-04-10T08:18:09.071Z,60.45
2023-04-10T08:20:37.123Z,60.21
2023-04-10T08:23:19.288Z,60.03
2023-04-10T08:25:47.642Z,60.36
2023-04-10T08:28:14.175Z,59.97
2023-04-10T08:30:40.759Z,60.05
2023-04-10T08:33:19.613Z,59.34
2023-04-10T08:35:48.980Z,59.34
2023-04-10T08:38:15.998Z,59.82
2023-04-10T08:40:44.490Z,60.16
2023-04-10T08:43:11.370Z,59.38
2023-04-10T08:45:41.283Z,59.51
2023-04-10T08:48:09.124Z,59.06
2023-04-10T08:50:41.836Z,60.16
2023-04-10T08:53:12.919Z,59.82
2023-04-10T08:55:40.787Z,59.77
2023-04-10T08:58:08.526Z,59.51
2023-04-10T09:00:38.941Z,59.63
2023-04-10T09:03:11.873Z,59.85
2023-04-10T09:05:39.734Z,59.17
2023-04-10T09:08:07.992Z,59.25
2023-04-10T09:10:34.629Z,60.10
2023-04-10T09:13:01.181Z,60.17
2023-04-10T09:15:28.945Z,60.30
2023-04-10T09:17:59.644Z,59.72
2023-04-10T09:20:29.127Z,59.62
2023-04-10T09:22:56.234Z,59.93
2023-04-10T09:25:31.565Z,59.78
2023-04-10T09:28:04.994Z,59.63
2023-04-10T09:30:34.690Z,60.29
2023-04-10T09:33:03.421Z,60.26
2023-04-10T09:35:38.404Z,59.94
2023-04-10T09:38:19.088Z,60.29
2023-04-10T09:40:47.584Z,59.44
2023-04-10T09:43:24.480Z,59.96
2023-04-10T09:45:54.557Z,60.31
2023-04-10T09:48:22.445Z,59.85
2023-04-10T09:50:49.309Z,60.23
2023-04-10T09:53:19.577Z,60.07
2023-04-10T09:55:59.106Z,60.68
2023-04-10T09:58:26.628Z,60.40
2023-04-10T10:00:53.764Z,60.39
2023-04-10T10:03:21.673Z,60.06
2023-04-10T10:05:57.062Z,59.99
2023-04-10T10:08:24.648Z,60.15
2023-04-10T10:10:54.794Z,59.37
2023-04-10T10:13:33.517Z,59.85
2023-04-10T10:16:08.563Z,59.54
2023-04-10T10:18:44.145Z,59.22
2023-04-10T10:21:18.337Z,59.80
2023-04-10T10:23:46.774Z,59.07
2023-04-10T10:26:15.586Z,58.59
2023-04-10T10:28:43.782Z,58.89
2023-04-10T10:31:18.214Z,59.07
2023-04-10T10:33:47.115Z,58.10
2023-04-10T10:36:15.629Z,58.23
2023-04-10T10:38:51.278Z,58.25
2023-04-10T10:41:28.746Z,57.89
2023-04-10T10:44:07.138Z,57.32
2023-04-10T10:46:44.692Z,58.82
2023-04-10T10:49:14.434Z,57.24
2023-04-10T10:51:51.996Z,56.87
2023-04-10T10:54:30.639Z,56.90
2023-04-10T10:56:57.414Z,55.76
2023-04-10T10:59:50.750Z,56.44
2023-04-10T11:02:19.003Z,56.59
2023-04-10T11:04:47.280Z,55.97
2023-04-10T11:07:15.737Z,55.76
2023-04-10T11:09:53.559Z,54.72
2023-04-10T11:12:26.537Z,54.74
2023-04-10T11:15:00.932Z,54.30
2023-04-10T11:17:47.329Z,54.85
2023-04-10T11:20:13.949Z,53.92
2023-04-10T11:23:12.778Z,54.82
2023-04-10T11:26:07.476Z,54.87
2023-04-10T11:28:38.669Z,54.65
2023-04-10T11:31:15.689Z,54.87
2023-04-10T11:33:42.402Z,53.89
2023-04-10T11:36:09.108Z,54.98
2023-04-10T11:38:36.356Z,54.59
2023-04-10T11:41:06.612Z,53.65
2023-04-10T11:43:35.055Z,54.96
2023-04-10T11:46:04.210Z,54.77
2023-04-10T11:48:33.662Z,55.86
2023-04-10T11:51:07.501Z,54.73
2023-04-10T11:53:35.389Z,53.90
2023-04-10T11:56:01.976Z,53.75
2023-04-10T11:58:32.523Z,53.71
2023-04-10T12:01:02.486Z,54.36
2023-04-10T12:03:39.778Z,55.62
2023-04-10T12:06:09.534Z,55.54
2023-04-10T12:08:41.644Z,54.15
2023-04-10T12:11:10.424Z,53.19
2023-04-10T12:13:38.122Z,53.66
2023-04-10T12:16:08.097Z,54.63
2023-04-10T12:18:38.427Z,53.89
2023-04-10T12:21:08.141Z,54.28
2023-04-10T12:23:39.129Z,54.83
2023-04-10T12:26:08.730Z,54.52
2023-04-10T12:28:36.669Z,54.62
2023-04-10T12:31:03.801Z,54.35
2023-04-10T12:33:30.515Z,53.75
2023-04-10T12:35:57.407Z,54.26
2023-04-10T12:38:42.543Z,55.03
2023-04-10T12:41:11.470Z,53.99
2023-04-10T12:43:40.049Z,53.49
2023-04-10T12:46:08.330Z,54.28
2023-04-10T12:48:35.308Z,54.90
2023-04-10T12:51:02.500Z,54.56
2023-04-10T12:53:29.165Z,54.52
2023-04-10T12:55:59.479Z,55.24
2023-04-10T12:58:30.049Z,54.59
2023-04-10T13:00:58.256Z,55.28
2023-04-10T13:03:27.706Z,54.79
2023-04-10T13:05:57.745Z,55.77
2023-04-10T13:08:24.376Z,55.27
2023-04-10T13:10:52.098Z,54.68
2023-04-10T13:13:18.821Z,55.06
2023-04-10T13:15:45.463Z,55.24
2023-04-10T13:18:12.391Z,55.31
2023-04-10T13:20:40.913Z,54.77
2023-04-10T13:23:08.453Z,55.31
2023-04-10T13:25:39.635Z,55.35
2023-04-10T13:28:29.680Z,55.28
2023-04-10T13:30:57.629Z,55.40
2023-04-10T13:33:24.989Z,56.31
2023-04-10T13:35:51.553Z,56.44
2023-04-10T13:38:20.673Z,56.69
2023-04-10T13:40:47.915Z,58.63
2023-04-10T13:43:14.698Z,60.10
2023-04-10T13:45:41.576Z,59.49
2023-04-10T13:48:08.219Z,59.22
2023-04-10T13:50:35.086Z,59.69
2023-04-10T13:53:01.722Z,61.72
2023-04-10T13:55:28.299Z,62.20
2023-04-10T13:57:54.849Z,63.00
2023-04-10T14:00:22.043Z,64.85
2023-04-10T14:02:48.644Z,65.23
2023-04-10T14:05:15.480Z,64.57
2023-04-10T14:07:42.019Z,64.24
2023-04-10T14:10:10.224Z,65.32
2023-04-10T14:12:37.958Z,65.95
2023-04-10T14:15:05.134Z,66.37
2023-04-10T14:17:31.743Z,66.44
2023-04-10T14:19:58.388Z,67.08
2023-04-10T14:22:24.941Z,69.23
2023-04-10T14:24:58.958Z,69.61
2023-04-10T14:27:32.127Z,71.61
2023-04-10T14:29:58.741Z,71.58
2023-04-10T14:32:25.449Z,71.94
2023-04-10T14:34:52.225Z,71.50
2023-04-10T14:37:20.419Z,73.13
2023-04-10T14:39:47.101Z,73.15
2023-04-10T14:42:13.751Z,74.26
2023-04-10T14:44:40.498Z,73.03
2023-04-10T14:47:09.065Z,74.27
2023-04-10T14:49:35.712Z,75.55
2023-04-10T14:52:02.335Z,76.38
2023-04-10T14:54:30.273Z,75.25
2023-04-10T14:56:58.303Z,74.70
2023-04-10T14:59:24.962Z,76.90
2023-04-10T15:01:53.709Z,77.72
2023-04-10T15:04:20.545Z,76.86
2023-04-10T15:06:47.219Z,77.36
2023-04-10T15:09:14.551Z,77.43
2023-04-10T15:11:41.242Z,79.07
2023-04-10T15:14:08.327Z,79.78
2023-04-10T15:16:35.044Z,79.92
2023-04-10T15:19:01.705Z,80.55
2023-04-10T15:21:29.314Z,79.78
2023-04-10T15:23:56.060Z,81.16
2023-04-10T15:26:22.995Z,80.89
2023-04-10T15:28:51.828Z,81.40
2023-04-10T15:31:22.483Z,81.42
2023-04-10T15:33:51.881Z,81.49
2023-04-10T15:36:18.551Z,81.09
2023-04-10T15:38:45.168Z,82.04
2023-04-10T15:41:12.772Z,82.36
2023-04-10T15:43:39.611Z,81.75
2023-04-10T15:46:06.372Z,82.32
2023-04-10T15:48:37.593Z,82.72
2023-04-10T15:51:05.583Z,82.97
2023-04-10T15:53:32.703Z,82.42
2023-04-10T15:55:59.292Z,83.16
2023-04-10T15:58:26.074Z,83.90
2023-04-10T16:00:52.819Z,84.46
2023-04-10T16:03:19.483Z,85.32
2023-04-10T16:05:46.196Z,85.66
2023-04-10T16:08:12.908Z,86.18
2023-04-10T16:10:39.581Z,85.78
2023-04-10T16:13:08.012Z,86.10
2023-04-10T16:15:36.306Z,86.51
2023-04-10T16:18:05.441Z,85.83
2023-04-10T16:20:32.292Z,86.31
2023-04-10T16:22:59.197Z,86.50
2023-04-10T16:25:27.413Z,86.60
2023-04-10T16:27:55.064Z,87.35
2023-04-10T16:30:22.523Z,87.34
2023-04-10T16:32:49.146Z,87.98
2023-04-10T16:35:18.053Z,88.05
2023-04-10T16:37:45.867Z,88.21
2023-04-10T16:40:12.652Z,88.56
2023-04-10T16:42:40.392Z,89.39
2023-04-10T16:45:08.463Z,89.97
2023-04-10T16:47:35.296Z,90.41
2023-04-10T16:50:02.346Z,90.77
2023-04-10T16:52:28.949Z,90.82
2023-04-10T16:54:55.587Z,91.15
2023-04-10T16:57:22.188Z,91.87
2023-04-10T16:59:48.870Z,92.07
2023-04-10T17:02:15.522Z,92.43
2023-04-10T17:04:43.347Z,92.65
2023-04-10T17:07:11.139Z,93.03
2023-04-10T17:09:37.967Z,92.78
2023-04-10T17:12:04.815Z,92.63
2023-04-10T17:14:32.498Z,92.77
2023-04-10T17:16:59.120Z,92.80
2023-04-10T17:19:25.856Z,92.67
2023-04-10T17:21:52.513Z,92.02
2023-04-10T17:24:19.115Z,91.91
2023-04-10T17:26:45.741Z,91.68
2023-04-10T17:29:12.362Z,91.99
2023-04-10T17:31:38.950Z,91.96
2023-04-10T17:34:05.522Z,92.38
2023-04-10T17:36:32.539Z,92.24
2023-04-10T17:39:00.708Z,92.18
2023-04-10T17:41:27.616Z,92.22
2023-04-10T17:43:54.876Z,92.00
2023-04-10T17:46:21.642Z,92.12
2023-04-10T17:48:48.317Z,91.51
2023-04-10T17:51:15.025Z,91.53
2023-04-10T17:53:41.758Z,91.88
2023-04-10T17:56:08.447Z,91.29
2023-04-10T17:58:35.075Z,91.81
2023-04-10T18:01:01.694Z,91.71
2023-04-10T18:03:28.374Z,91.77
2023-04-10T18:05:55.035Z,91.54
2023-04-10T18:08:21.706Z,91.51
2023-04-10T18:10:48.644Z,91.53
2023-04-10T18:13:15.330Z,91.81
2023-04-10T18:15:41.982Z,91.96
2023-04-10T18:18:08.784Z,91.77
2023-04-10T18:20:35.616Z,92.08
2023-04-10T18:23:04.394Z,92.12
2023-04-10T18:25:31.304Z,92.07
2023-04-10T18:28:13.647Z,92.30
2023-04-10T18:30:42.239Z,91.75
2023-04-10T18:33:10.937Z,91.72
2023-04-10T18:35:38.160Z,91.97
2023-04-10T18:38:04.847Z,92.14
2023-04-10T18:40:31.545Z,92.34
2023-04-10T18:42:59.729Z,92.37
2023-04-10T18:45:26.418Z,92.06
2023-04-10T18:47:53.129Z,92.23
2023-04-10T18:50:19.826Z,91.77
2023-04-10T18:52:46.554Z,91.46
2023-04-10T18:55:13.234Z,91.66
2023-04-10T18:57:39.908Z,91.41
2023-04-10T19:00:08.289Z,91.53
2023-04-10T19:02:34.985Z,91.33
2023-04-10T19:05:01.687Z,91.38
2023-04-10T19:07:28.272Z,91.20
2023-04-10T19:09:55.114Z,91.53
2023-04-10T19:12:21.704Z,91.29
2023-04-10T19:14:49.326Z,91.90
2023-04-10T19:17:16.053Z,92.11
2023-04-10T19:19:42.959Z,91.97
2023-04-10T19:22:09.812Z,91.97
2023-04-10T19:24:36.384Z,92.22
2023-04-10T19:27:03.041Z,91.98
2023-04-10T19:29:31.070Z,91.61
2023-04-10T19:31:57.629Z,91.35
2023-04-10T19:34:24.190Z,91.61
2023-04-10T19:36:50.902Z,91.21
2023-04-10T19:39:17.441Z,91.22
2023-04-10T19:41:44.073Z,91.14
2023-04-10T19:44:10.811Z,91.31
2023-04-10T19:46:37.440Z,91.44
2023-04-10T19:49:04.088Z,90.93
2023-04-10T19:51:32.315Z,91.22
2023-04-10T19:53:59.389Z,91.07
2023-04-10T19:56:27.837Z,90.94
2023-04-10T19:58:54.626Z,91.29
2023-04-10T20:01:24.175Z,91.27
2023-04-10T20:03:51.202Z,91.29
2023-04-10T20:06:17.996Z,91.31
2023-04-10T20:08:44.763Z,91.64
2023-04-10T20:11:11.554Z,91.39
2023-04-10T20:13:40.393Z,91.43
2023-04-10T20:16:07.838Z,91.69
2023-04-10T20:18:34.758Z,91.97
2023-04-10T20:21:01.356Z,91.73
2023-04-10T20:23:27.975Z,91.70
2023-04-10T20:25:54.621Z,91.81
2023-04-10T20:28:22.338Z,91.70
2023-04-10T20:30:48.884Z,91.47
2023-04-10T20:33:15.483Z,91.76
2023-04-10T20:35:42.163Z,91.91
2023-04-10T20:38:08.856Z,91.84
2023-04-10T20:40:36.115Z,92.00
2023-04-10T20:43:02.697Z,91.50
2023-04-10T20:45:31.434Z,92.04
2023-04-10T20:47:58.231Z,91.67
2023-04-10T20:50:24.838Z,91.66
2023-04-10T20:52:51.454Z,91.43
2023-04-10T20:55:18.170Z,91.54
2023-04-10T20:57:44.748Z,91.58
2023-04-10T21:00:11.896Z,91.62
2023-04-10T21:02:38.970Z,92.06
2023-04-10T21:05:06.000Z,92.05
2023-04-10T21:07:32.613Z,91.48
2023-04-10T21:09:59.266Z,91.46
2023-04-10T21:12:25.837Z,91.31
2023-04-10T21:14:53.433Z,91.08
2023-04-10T21:17:20.097Z,91.28
2023-04-10T21:19:46.774Z,91.06
2023-04-10T21:22:14.915Z,91.05
2023-04-10T21:24:41.440Z,91.08
2023-04-10T21:27:08.113Z,90.90
2023-04-10T21:29:34.632Z,91.20
2023-04-10T21:32:01.229Z,91.24
2023-04-10T21:34:27.956Z,91.07
2023-04-10T21:36:54.719Z,91.18
2023-04-10T21:39:21.314Z,91.05
2023-04-10T21:41:49.919Z,91.31
2023-04-10T21:44:16.683Z,91.23
2023-04-10T21:46:44.315Z,90.78
2023-04-10T21:49:12.500Z,91.18
2023-04-10T21:51:40.753Z,90.52
2023-04-10T21:54:07.536Z,90.35
2023-04-10T21:56:35.628Z,90.85
2023-04-10T21:59:02.959Z,90.85
2023-04-10T22:01:29.603Z,90.74
2023-04-10T22:03:57.005Z,90.17
2023-04-10T22:06:23.841Z,90.28
2023-04-10T22:08:50.470Z,90.19
2023-04-10T22:11:17.072Z,90.15
2023-04-10T22:13:43.656Z,90.04
2023-04-10T22:16:10.498Z,90.27
2023-04-10T22:18:37.116Z,89.74
2023-04-10T22:21:03.856Z,89.87
2023-04-10T22:23:31.215Z,89.31
2023-04-10T22:26:00.753Z,89.13
2023-04-10T22:28:28.413Z,86.16
2023-04-10T22:30:55.126Z,84.00
2023-04-10T22:33:21.761Z,83.17
2023-04-10T22:35:48.746Z,83.89
2023-04-10T22:38:16.522Z,83.10
2023-04-10T22:40:43.094Z,83.18
2023-04-10T22:43:10.909Z,82.98
2023-04-10T22:45:37.446Z,84.12
2023-04-10T22:48:04.021Z,84.07
2023-04-10T22:50:31.239Z,84.52
2023-04-10T22:52:58.746Z,84.76
2023-04-10T22:55:25.395Z,84.37
2023-04-10T22:57:51.931Z,84.13
2023-04-10T23:00:18.653Z,84.65
2023-04-10T23:02:45.368Z,85.31
2023-04-10T23:05:11.946Z,85.36
2023-04-10T23:07:38.490Z,84.56
2023-04-10T23:10:05.666Z,84.49
2023-04-10T23:12:32.326Z,83.90
2023-04-10T23:14:58.947Z,84.20
2023-04-10T23:17:25.533Z,83.39
2023-04-10T23:19:52.059Z,83.38
2023-04-10T23:22:18.621Z,83.45
2023-04-10T23:24:45.815Z,83.04
2023-04-10T23:27:12.397Z,82.99
2023-04-10T23:29:38.934Z,83.21
2023-04-10T23:32:05.637Z,82.48
2023-04-10T23:34:32.145Z,82.67
2023-04-10T23:36:59.821Z,82.75
2023-04-10T23:39:26.425Z,83.07
2023-04-10T23:41:53.041Z,83.11
2023-04-10T23:44:19.631Z,83.61
2023-04-10T23:46:46.222Z,83.46
2023-04-10T23:49:12.795Z,83.87
2023-04-10T23:51:39.285Z,84.21
2023-04-10T23:54:06.439Z,84.46
2023-04-10T23:56:32.998Z,84.87
2023-04-10T23:58:59.584Z,84.85
